This is the latest recevied weather packets stored in our database for station/object CT2IRJ-11. If no packets are shown the sender has not sent any weather packets the latest 10 day(s).
| Time | Temp. | Humidity | Pressure | Rain* | Wind** | Luminosity | Snow |
|---|---|---|---|---|---|---|---|
| 1777479510 | 20.56° C | 60% | 1009.1 hPa | 0 mm | - | 411 W/m² | - |
| 1777478967 | 19.44° C | 62% | 1008.8 hPa | 0 mm | - | 417 W/m² | - |
| 1777478610 | 18.89° C | 64% | 1009.1 hPa | 0 mm | - | 131 W/m² | - |
| 1777478309 | 18.89° C | 65% | 1008.8 hPa | 0 mm | - | 114 W/m² | - |
| 1777478010 | 19.44° C | 64% | 1008.8 hPa | 0 mm | - | 103 W/m² | - |
| 1777477710 | 19.44° C | 63% | 1008.8 hPa | 0 mm | - | 377 W/m² | - |
| 1777477410 | 20° C | 61% | 1008.8 hPa | 0 mm | - | 520 W/m² | - |
| 1777477110 | 21.11° C | 58% | 1008.8 hPa | 0 mm | - | 193 W/m² | - |
| 1777476809 | 20° C | 62% | 1008.8 hPa | 0 mm | - | 713 W/m² | - |
| 1777476510 | 20.56° C | 60% | 1008.8 hPa | 0 mm | - | 247 W/m² | - |
| 1777476209 | 20.56° C | 58% | 1008.8 hPa | 0 mm | - | 344 W/m² | - |
| 1777475912 | 21.67° C | 57% | 1008.8 hPa | 0 mm | - | 407 W/m² | - |
| 1777475610 | 19.44° C | 62% | 1008.5 hPa | 0 mm | - | 770 W/m² | - |
| 1777475309 | 18.89° C | 63% | 1008.8 hPa | 0 mm | - | 289 W/m² | - |
| 1777475010 | 18.89° C | 65% | 1008.5 hPa | 0 mm | - | 280 W/m² | - |
| 1777474710 | 18.89° C | 65% | 1008.5 hPa | 0 mm | - | 205 W/m² | - |
| 1777474410 | 18.89° C | 67% | 1008.8 hPa | 0 mm | - | 212 W/m² | - |
| 1777474110 | 18.89° C | 66% | 1008.5 hPa | 0 mm | - | 197 W/m² | - |
| 1777473810 | 20° C | 64% | 1008.5 hPa | 0 mm | - | 251 W/m² | - |
| 1777473511 | 20.56° C | 64% | 1008.8 hPa | 0 mm | - | 324 W/m² | - |
| 1777473211 | 21.11° C | 59% | 1008.5 hPa | 0 mm | - | 749 W/m² | - |
| 1777472910 | 21.11° C | 61% | 1008.5 hPa | 0 mm | - | 777 W/m² | - |
| 1777472610 | 21.11° C | 55% | 1008.5 hPa | 0 mm | - | 688 W/m² | - |
| 1777472310 | 20.56° C | 60% | 1008.5 hPa | 0 mm | - | 627 W/m² | - |
| 1777472010 | 20° C | 61% | 1008.5 hPa | 0 mm | - | 285 W/m² | - |
* Rain latest hour (hover to see other rain measurements)
** Current wind speed in m/s (hover to see current wind gust speed)